Date,TemperatureHighF,TemperatureAvgF,TemperatureLowF,DewpointHighF,DewpointAvgF,DewpointLowF,HumidityHigh,HumidityAvg,HumidityLow,PressureMaxIn,PressureMinIn,WindSpeedMaxMPH,WindSpeedAvgMPH,GustSpeedMaxMPH,PrecipitationSumIn
2013-11-1,67.4,60.3,45.4,63.5,56.3,44.7,100,88,60,29.73,29.43,20,2,38,0.08
2013-11-2,67.9,50.9,40.5,50.1,44.9,40.3,100,82,43,29.71,29.55,8,0,13,0.00
2013-11-3,46.1,39.1,29.1,43.6,30.8,18.0,99,73,57,30.41,29.71,12,2,20,0.00
2013-11-4,46.0,32.6,23.2,25.3,19.9,13.9,87,63,28,30.62,30.41,8,1,12,0.00
2013-11-5,54.1,40.4,26.4,38.4,32.4,24.0,92,75,53,30.63,30.43,6,0,13,0.00
2013-11-6,58.7,47.9,35.2,49.0,42.8,34.4,100,84,62,30.44,29.99,6,1,13,0.00
2013-11-7,59.5,50.3,36.2,57.3,48.3,33.1,99,93,86,29.99,29.66,11,1,17,0.10
2013-11-8,46.7,39.2,33.8,33.1,29.9,26.7,95,70,49,30.10,29.83,12,3,20,0.00
2013-11-9,47.7,38.9,29.8,33.3,29.2,24.8,91,69,43,30.21,29.93,6,0,12,0.00
2013-11-10,56.2,45.1,39.3,42.3,35.4,29.5,94,70,48,29.94,29.73,16,2,21,0.02
2013-11-11,50.4,45.1,38.8,33.5,30.3,27.5,69,56,42,30.11,29.87,13,2,22,0.00
2013-11-12,48.0,33.1,24.7,38.3,25.1,15.9,97,73,55,30.21,29.86,12,2,20,0.02
2013-11-13,37.9,28.1,20.0,18.9,15.8,11.2,84,62,35,30.30,30.17,11,2,16,0.00
2013-11-14,52.9,39.4,27.9,20.5,18.5,13.5,68,45,23,30.17,30.04,9,1,16,0.00
2013-11-15,59.5,39.8,25.8,27.2,22.2,17.4,81,54,24,30.17,30.07,5,1,12,0.00
2013-11-16,63.4,44.4,30.7,39.7,33.8,25.9,96,70,29,30.26,30.16,5,0,6,0.00
2013-11-17,59.9,53.0,33.8,59.0,52.2,31.7,100,97,91,30.22,29.71,9,1,13,0.01
2013-11-18,63.9,57.3,46.4,60.4,42.9,26.3,100,62,34,29.71,29.49,13,4,25,0.03
2013-11-19,46.5,39.2,30.4,31.1,25.2,19.9,70,57,47,30.30,29.68,16,4,21,0.00
2013-11-20,41.2,30.0,21.0,21.3,17.8,15.5,88,62,37,30.58,30.30,12,2,16,0.00
2013-11-21,49.9,33.5,17.0,35.2,25.6,15.1,93,75,43,30.60,30.32,3,0,7,0.00
2013-11-22,51.4,45.4,39.8,48.6,43.9,35.1,100,94,81,30.32,29.81,7,0,16,0.02
2013-11-23,51.0,39.2,26.3,47.9,25.1,8.0,89,58,34,29.97,29.82,17,4,25,0.00
2013-11-24,27.2,23.2,20.5,13.5,3.7,-5.8,60,44,24,30.26,29.89,20,7,31,0.00
2013-11-25,34.4,24.6,11.9,15.1,11.4,6.6,86,59,37,30.40,30.24,7,1,13,0.00
2013-11-26,38.3,33.1,29.7,38.3,23.6,13.0,100,70,48,30.27,29.81,8,1,13,0.34
2013-11-27,58.4,42.6,32.7,58.3,41.8,26.9,100,97,82,29.81,29.27,14,3,20,1.86
2013-11-28,32.7,27.4,20.6,26.9,15.5,8.7,87,62,41,30.41,29.60,15,4,21,0.00
2013-11-29,34.4,26.1,20.6,21.3,19.1,11.9,93,76,54,30.68,30.40,10,1,13,0.00
2013-11-30,32.8,24.5,14.3,21.7,13.4,7.9,90,64,37,30.73,30.33,6,1,10,0.00